Time;durP1;ratioP1;P1;durP2;ratioP2;P2;SDS_P1;SDS_P2;PMS_P1;PMS_P2;Temp;Humidity;BMP_temperature;BMP_pressure;BME280_temperature;BME280_humidity;BME280_pressure;Samples;Min_cycle;Max_cycle;Signal;HPM_P1;HPM_P2
2023/07/05 00:00:14;;;;;;;3.70;3.10;;;21.00;58.80;;;;;;5052404;28;20704;-70
2023/07/05 00:02:40;;;;;;;3.35;3.05;;;21.00;58.80;;;;;;5053301;28;20178;-70
2023/07/05 00:05:07;;;;;;;3.38;3.08;;;20.90;58.70;;;;;;5053089;28;20175;-69
2023/07/05 00:07:33;;;;;;;3.40;3.10;;;21.00;58.70;;;;;;5052509;28;20642;-69
2023/07/05 00:09:59;;;;;;;4.93;3.17;;;21.00;58.80;;;;;;5053114;28;20237;-71
2023/07/05 00:12:24;;;;;;;4.05;3.10;;;21.00;58.80;;;;;;5053167;28;20178;-72
2023/07/05 00:14:50;;;;;;;4.30;3.40;;;21.00;58.80;;;;;;5052414;28;20217;-72
2023/07/05 00:17:15;;;;;;;4.07;3.38;;;21.00;58.80;;;;;;5052761;28;20179;-71
2023/07/05 00:19:41;;;;;;;3.63;3.33;;;20.90;58.80;;;;;;5052697;28;20238;-72
2023/07/05 00:22:07;;;;;;;5.10;3.30;;;21.00;58.90;;;;;;5052511;28;20202;-72
2023/07/05 00:24:33;;;;;;;4.22;3.50;;;20.90;58.80;;;;;;5053245;28;20712;-71
2023/07/05 00:26:59;;;;;;;4.15;3.47;;;20.90;58.80;;;;;;5052036;28;20175;-72
2023/07/05 00:29:26;;;;;;;3.58;3.15;;;20.90;58.80;;;;;;5053108;28;20189;-70
2023/07/05 00:31:51;;;;;;;4.82;3.40;;;20.90;58.70;;;;;;5053030;28;20182;-70
2023/07/05 00:34:18;;;;;;;4.47;3.05;;;20.90;58.80;;;;;;5051942;28;20183;-71
2023/07/05 00:36:44;;;;;;;3.60;3.30;;;20.90;58.70;;;;;;5053023;28;20171;-71
2023/07/05 00:39:09;;;;;;;3.80;3.40;;;20.90;59.30;;;;;;5052358;28;20239;-71
2023/07/05 00:41:35;;;;;;;4.97;3.40;;;20.90;58.70;;;;;;5052268;28;20206;-70
2023/07/05 00:44:01;;;;;;;4.68;3.90;;;20.90;58.70;;;;;;5052430;28;20225;-71
2023/07/05 00:46:27;;;;;;;3.97;3.40;;;20.90;58.70;;;;;;5052617;28;20177;-69
2023/07/05 00:48:55;;;;;;;4.68;3.78;;;20.90;58.70;;;;;;5050829;28;20181;-70
2023/07/05 00:51:28;;;;;;;4.15;3.63;;;20.90;58.70;;;;;;5052528;28;20179;-69
2023/07/05 00:53:56;;;;;;;4.88;3.70;;;20.90;58.70;;;;;;5051840;28;20232;-70
2023/07/05 00:56:25;;;;;;;3.95;3.25;;;20.90;58.70;;;;;;5037635;28;20545;-70
2023/07/05 00:58:50;;;;;;;3.88;3.53;;;20.90;58.70;;;;;;5056893;28;20229;-72
2023/07/05 01:01:16;;;;;;;4.43;3.30;;;20.90;58.70;;;;;;5055404;28;20630;-71
2023/07/05 01:03:42;;;;;;;3.80;3.38;;;20.90;59.30;;;;;;5056040;28;20174;-71
2023/07/05 01:06:08;;;;;;;4.88;3.53;;;20.90;58.70;;;;;;5038629;28;20225;-70
2023/07/05 01:08:33;;;;;;;4.00;3.53;;;20.90;58.70;;;;;;5055547;28;20175;-71
2023/07/05 01:11:04;;;;;;;4.43;3.63;;;20.80;58.70;;;;;;5055396;28;20178;-72
2023/07/05 01:13:33;;;;;;;3.80;3.42;;;20.90;58.70;;;;;;5039267;28;20650;-72
2023/07/05 01:16:18;;;;;;;4.43;3.75;;;20.90;58.80;;;;;;5038263;28;20175;-73
2023/07/05 01:18:47;;;;;;;3.67;3.22;;;20.90;58.80;;;;;;5055631;28;20282;-73
2023/07/05 01:21:30;;;;;;;4.70;4.15;;;20.90;58.80;;;;;;5055120;28;20657;-72
2023/07/05 01:24:22;;;;;;;4.68;3.50;;;20.90;58.80;;;;;;5055420;28;20175;-72
2023/07/05 01:27:11;;;;;;;5.60;3.88;;;20.90;58.80;;;;;;5055358;28;20250;-72
2023/07/05 01:29:54;;;;;;;4.00;3.50;;;20.80;58.80;;;;;;5040289;28;20221;-70
2023/07/05 01:32:27;;;;;;;4.68;3.92;;;20.90;58.80;;;;;;5055332;28;20175;-71
2023/07/05 01:34:59;;;;;;;4.50;4.10;;;20.90;58.80;;;;;;5055203;28;20171;-72
2023/07/05 01:37:38;;;;;;;4.45;3.90;;;20.90;58.80;;;;;;5037987;28;20183;-71
2023/07/05 01:40:25;;;;;;;3.97;3.40;;;20.90;58.80;;;;;;5055540;28;20238;-71
2023/07/05 01:42:57;;;;;;;4.35;3.95;;;20.80;58.80;;;;;;5056255;28;20229;-72
2023/07/05 01:45:46;;;;;;;5.13;3.63;;;20.90;58.80;;;;;;5037631;28;20665;-70
2023/07/05 01:48:18;;;;;;;4.20;3.65;;;20.80;58.80;;;;;;5054675;28;20187;-69
2023/07/05 01:50:51;;;;;;;4.00;3.38;;;20.90;58.90;;;;;;5054933;28;20194;-70
2023/07/05 01:53:25;;;;;;;4.57;3.88;;;20.80;58.80;;;;;;5037529;28;20202;-69
2023/07/05 01:55:59;;;;;;;4.63;3.70;;;20.80;58.90;;;;;;5039430;28;20178;-71
2023/07/05 01:58:28;;;;;;;4.00;3.60;;;20.90;58.90;;;;;;5053998;28;20182;-71
2023/07/05 02:00:53;;;;;;;3.85;3.38;;;20.90;58.90;;;;;;5054711;28;20583;-73
2023/07/05 02:03:19;;;;;;;5.45;4.28;;;20.80;58.80;;;;;;5037767;28;20665;-69
2023/07/05 02:05:46;;;;;;;3.58;3.22;;;20.90;58.90;;;;;;5037254;28;20545;-70
2023/07/05 02:08:13;;;;;;;4.30;3.50;;;20.90;59.00;;;;;;5054213;28;20175;-71
2023/07/05 02:10:38;;;;;;;4.38;3.97;;;20.80;58.90;;;;;;5054586;28;20249;-72
2023/07/05 02:13:06;;;;;;;5.00;4.13;;;20.80;59.00;;;;;;5054599;28;20650;-73
2023/07/05 02:15:32;;;;;;;3.75;3.35;;;20.90;59.00;;;;;;5038130;28;20171;-72
2023/07/05 02:17:58;;;;;;;5.47;3.42;;;20.90;59.00;;;;;;5055131;28;20175;-72
2023/07/05 02:20:23;;;;;;;4.20;3.60;;;20.80;59.00;;;;;;5054660;28;20324;-71
2023/07/05 02:22:49;;;;;;;4.00;3.60;;;20.80;59.00;;;;;;5055239;28;20546;-72
2023/07/05 02:25:15;;;;;;;3.90;3.60;;;20.90;59.10;;;;;;5055082;28;20213;-71
2023/07/05 02:27:40;;;;;;;4.05;3.50;;;20.90;59.00;;;;;;5054516;28;20193;-70
2023/07/05 02:30:09;;;;;;;4.40;4.00;;;20.80;59.00;;;;;;5055078;28;20179;-70
2023/07/05 02:32:34;;;;;;;4.15;3.75;;;20.90;59.10;;;;;;5055120;28;20237;-70
2023/07/05 02:35:01;;;;;;;4.05;3.65;;;20.80;59.10;;;;;;5053939;28;20175;-71
2023/07/05 02:37:26;;;;;;;4.38;3.40;;;20.90;59.10;;;;;;5055110;28;20268;-70
2023/07/05 02:39:53;;;;;;;4.90;4.22;;;20.90;59.20;;;;;;5054927;28;20698;-72
2023/07/05 02:42:19;;;;;;;3.60;3.30;;;20.80;59.80;;;;;;5054137;28;20171;-71
2023/07/05 02:44:47;;;;;;;3.70;3.38;;;20.80;59.20;;;;;;5055131;28;20186;-72
2023/07/05 02:47:13;;;;;;;4.00;3.40;;;20.80;59.20;;;;;;5054656;28;20221;-69
2023/07/05 02:49:39;;;;;;;5.18;3.53;;;20.80;59.20;;;;;;5054034;28;20179;-70
2023/07/05 02:52:04;;;;;;;3.95;3.65;;;20.80;59.30;;;;;;5054386;28;20175;-70
2023/07/05 02:54:30;;;;;;;3.97;3.53;;;20.80;59.30;;;;;;5054107;28;20216;-71
2023/07/05 02:56:56;;;;;;;3.97;3.58;;;20.80;59.30;;;;;;5054317;28;20210;-72
2023/07/05 02:59:22;;;;;;;4.35;3.50;;;20.80;59.40;;;;;;5054655;28;20215;-71
2023/07/05 03:01:47;;;;;;;4.25;3.50;;;20.80;59.40;;;;;;5053953;28;21044;-72
2023/07/05 03:04:14;;;;;;;4.40;3.42;;;20.80;59.40;;;;;;5054247;28;20179;-70
2023/07/05 03:06:39;;;;;;;4.15;3.38;;;20.80;59.40;;;;;;5054475;28;20202;-71
2023/07/05 03:09:05;;;;;;;4.35;3.35;;;20.80;59.40;;;;;;5053524;28;20637;-72
2023/07/05 03:11:30;;;;;;;3.60;3.30;;;20.80;59.40;;;;;;5054580;28;20253;-72
2023/07/05 03:13:56;;;;;;;3.75;3.42;;;20.80;59.40;;;;;;5054143;28;20318;-73
2023/07/05 03:16:21;;;;;;;4.30;3.30;;;20.80;59.40;;;;;;5053602;28;20254;-72
2023/07/05 03:18:47;;;;;;;3.72;3.38;;;20.80;59.50;;;;;;5054029;28;20625;-72
2023/07/05 03:21:12;;;;;;;3.20;2.85;;;20.80;59.50;;;;;;5054041;28;20171;-72
2023/07/05 03:23:38;;;;;;;4.70;3.30;;;20.80;59.60;;;;;;5053446;28;20181;-71
2023/07/05 03:26:07;;;;;;;3.13;2.83;;;20.70;59.60;;;;;;5054283;28;20204;-72
2023/07/05 03:28:33;;;;;;;4.22;3.20;;;20.70;60.40;;;;;;5054193;28;20677;-70
2023/07/05 03:30:59;;;;;;;3.80;3.35;;;20.80;59.70;;;;;;5053081;28;20179;-72
2023/07/05 03:33:24;;;;;;;5.18;3.33;;;20.80;59.60;;;;;;5053827;28;20752;-70
2023/07/05 03:35:57;;;;;;;4.82;3.40;;;20.70;59.60;;;;;;5053853;28;20548;-71
2023/07/05 03:38:24;;;;;;;3.35;3.05;;;20.70;59.60;;;;;;5053254;28;20175;-72
2023/07/05 03:41:00;;;;;;;4.05;3.15;;;20.70;59.60;;;;;;5054070;28;20234;-72
2023/07/05 03:43:26;;;;;;;3.55;3.00;;;20.70;59.50;;;;;;5053844;28;20207;-70
2023/07/05 03:45:52;;;;;;;3.30;3.00;;;20.70;59.50;;;;;;5052963;28;20590;-71
2023/07/05 03:48:19;;;;;;;2.95;2.70;;;20.70;59.50;;;;;;5053347;28;20174;-70
2023/07/05 03:50:45;;;;;;;2.83;2.63;;;20.70;59.40;;;;;;5053158;28;20202;-71
2023/07/05 03:53:10;;;;;;;3.05;2.80;;;20.70;59.40;;;;;;5053459;28;20194;-70
2023/07/05 03:55:36;;;;;;;2.78;2.58;;;20.70;59.40;;;;;;5053782;28;20175;-72
2023/07/05 03:58:02;;;;;;;3.38;2.72;;;20.70;59.30;;;;;;5052621;28;20939;-73
2023/07/05 04:00:27;;;;;;;3.00;2.70;;;20.70;59.30;;;;;;5053224;28;20211;-72
2023/07/05 04:02:53;;;;;;;4.13;2.90;;;20.70;59.30;;;;;;5053691;28;20171;-73
2023/07/05 04:05:19;;;;;;;2.80;2.55;;;20.70;59.30;;;;;;5052555;28;20167;-70
2023/07/05 04:07:44;;;;;;;3.95;3.00;;;20.70;59.30;;;;;;5053431;28;20175;-71
2023/07/05 04:10:10;;;;;;;3.05;2.78;;;20.70;59.40;;;;;;5053088;28;20198;-71
2023/07/05 04:12:36;;;;;;;2.78;2.58;;;20.70;59.40;;;;;;5052655;28;20175;-72
2023/07/05 04:15:02;;;;;;;2.92;2.63;;;20.70;59.20;;;;;;5053102;28;20170;-73
2023/07/05 04:17:31;;;;;;;3.40;3.10;;;20.70;59.30;;;;;;5053236;28;20273;-72
2023/07/05 04:19:57;;;;;;;2.67;2.47;;;20.60;59.20;;;;;;5052237;28;20218;-73
2023/07/05 04:22:22;;;;;;;3.35;3.05;;;20.60;59.20;;;;;;5053264;28;20662;-71
2023/07/05 04:24:48;;;;;;;2.80;2.50;;;20.70;59.20;;;;;;5052988;28;20175;-72
2023/07/05 04:27:17;;;;;;;2.88;2.60;;;20.60;59.10;;;;;;5052022;28;20258;-72
2023/07/05 04:29:43;;;;;;;2.63;2.42;;;20.70;59.10;;;;;;5052321;28;20225;-72
2023/07/05 04:32:08;;;;;;;3.10;2.65;;;20.70;59.10;;;;;;5053057;28;20568;-71
2023/07/05 04:34:34;;;;;;;3.28;2.97;;;20.70;59.10;;;;;;5052388;28;20634;-71
2023/07/05 04:36:59;;;;;;;2.90;2.63;;;20.60;59.00;;;;;;5052644;28;20572;-73
2023/07/05 04:39:25;;;;;;;4.03;2.92;;;20.70;59.00;;;;;;5052684;28;20322;-72
2023/07/05 04:41:50;;;;;;;3.00;2.65;;;20.70;58.90;;;;;;5052242;28;20167;-72
2023/07/05 04:44:16;;;;;;;3.20;2.90;;;20.70;58.80;;;;;;5052451;28;20174;-71
2023/07/05 04:46:42;;;;;;;2.90;2.60;;;20.70;58.80;;;;;;5052615;28;20171;-71
2023/07/05 04:49:07;;;;;;;3.70;2.70;;;20.70;58.80;;;;;;5051899;28;20218;-70
2023/07/05 04:51:33;;;;;;;2.72;2.45;;;20.70;58.80;;;;;;5052884;28;20627;-71
2023/07/05 04:53:59;;;;;;;2.70;2.50;;;20.60;58.80;;;;;;5052167;28;20226;-71
2023/07/05 04:56:24;;;;;;;4.25;2.60;;;20.70;58.80;;;;;;5052295;28;20179;-72
2023/07/05 04:58:50;;;;;;;3.08;2.75;;;20.70;58.80;;;;;;5052629;28;20206;-73
2023/07/05 05:01:15;;;;;;;3.38;2.83;;;20.70;58.80;;;;;;5051618;28;20179;-71
2023/07/05 05:03:41;;;;;;;3.28;2.97;;;20.70;58.80;;;;;;5052575;28;20177;-72
2023/07/05 05:06:07;;;;;;;3.25;2.95;;;20.70;58.70;;;;;;5052503;28;20217;-71
2023/07/05 05:08:32;;;;;;;3.90;2.70;;;20.70;58.60;;;;;;5051757;28;20506;-72
2023/07/05 05:11:01;;;;;;;3.17;2.80;;;20.70;58.70;;;;;;5052231;28;20171;-74
2023/07/05 05:13:28;;;;;;;3.50;3.20;;;20.70;58.70;;;;;;5051309;28;20233;-72
2023/07/05 05:15:54;;;;;;;3.08;2.70;;;20.70;58.60;;;;;;5051717;28;20183;-73
2023/07/05 05:18:20;;;;;;;2.70;2.50;;;20.70;58.60;;;;;;5052319;28;20182;-72
2023/07/05 05:20:46;;;;;;;3.85;2.60;;;20.70;58.50;;;;;;5052645;28;20357;-75
2023/07/05 05:23:12;;;;;;;3.38;3.05;;;20.70;58.40;;;;;;5051488;28;20276;-71
2023/07/05 05:25:40;;;;;;;3.28;2.97;;;20.60;58.40;;;;;;5052637;28;20186;-72
2023/07/05 05:28:06;;;;;;;2.70;2.40;;;20.70;58.50;;;;;;5050768;28;20179;-72
2023/07/05 05:30:33;;;;;;;3.28;2.92;;;20.70;58.50;;;;;;5051820;28;20228;-72
2023/07/05 05:32:59;;;;;;;4.22;2.90;;;20.70;58.50;;;;;;5051049;28;20179;-74
2023/07/05 05:35:24;;;;;;;2.58;2.38;;;20.70;58.40;;;;;;5052413;28;20692;-72
2023/07/05 05:38:03;;;;;;;3.08;2.80;;;20.70;58.30;;;;;;5051749;28;20167;-72
2023/07/05 05:40:28;;;;;;;3.67;3.00;;;20.60;58.30;;;;;;5051850;28;20704;-72
2023/07/05 05:42:54;;;;;;;3.67;3.38;;;20.70;58.30;;;;;;5055829;28;20183;-72
2023/07/05 05:45:19;;;;;;;2.70;2.50;;;20.70;58.30;;;;;;5055172;28;20247;-71
2023/07/05 05:47:45;;;;;;;3.35;2.97;;;20.70;58.30;;;;;;5056057;28;20660;-71
2023/07/05 05:50:11;;;;;;;4.85;3.00;;;20.70;58.30;;;;;;5055566;28;20175;-71
2023/07/05 05:52:36;;;;;;;3.75;3.45;;;20.70;58.30;;;;;;5055284;28;20184;-71
2023/07/05 05:55:03;;;;;;;2.78;2.58;;;20.70;58.30;;;;;;5055556;28;20266;-73
2023/07/05 05:57:28;;;;;;;4.22;3.25;;;20.70;58.40;;;;;;5055196;28;20175;-73
2023/07/05 05:59:54;;;;;;;3.20;2.78;;;20.70;59.10;;;;;;5055870;28;20696;-73
2023/07/05 06:02:19;;;;;;;3.00;2.63;;;20.70;58.30;;;;;;5055370;28;20171;-72
2023/07/05 06:04:45;;;;;;;3.10;2.80;;;20.70;58.30;;;;;;5054941;28;20175;-73
2023/07/05 06:07:11;;;;;;;3.38;2.78;;;20.70;58.20;;;;;;5055431;28;20634;-71
2023/07/05 06:09:38;;;;;;;3.97;3.30;;;20.70;58.30;;;;;;5055471;28;20236;-72
2023/07/05 06:12:03;;;;;;;2.90;2.60;;;20.70;58.20;;;;;;5054390;28;20684;-73
2023/07/05 06:14:29;;;;;;;3.45;2.78;;;20.70;58.20;;;;;;5055952;28;20179;-73
2023/07/05 06:16:55;;;;;;;3.33;3.00;;;20.60;58.10;;;;;;5055631;28;20783;-74
2023/07/05 06:19:20;;;;;;;3.88;3.00;;;20.60;58.20;;;;;;5054511;28;20209;-72
2023/07/05 06:21:46;;;;;;;2.90;2.60;;;20.60;58.10;;;;;;5055438;28;20175;-73
2023/07/05 06:24:11;;;;;;;3.58;2.65;;;20.70;58.10;;;;;;5054888;28;20182;-72
2023/07/05 06:26:37;;;;;;;3.83;3.00;;;20.70;58.00;;;;;;5054453;28;20179;-72
2023/07/05 06:29:02;;;;;;;3.53;2.92;;;20.70;58.00;;;;;;5055088;28;20258;-72
2023/07/05 06:31:32;;;;;;;3.75;2.90;;;20.70;58.60;;;;;;5055199;28;20176;-71
2023/07/05 06:34:01;;;;;;;3.97;3.35;;;20.80;57.80;;;;;;5054237;28;20167;-72
2023/07/05 06:36:27;;;;;;;4.28;2.85;;;20.80;58.10;;;;;;5055034;28;20175;-72
2023/07/05 06:38:52;;;;;;;3.35;2.75;;;20.70;57.40;;;;;;5054674;28;20214;-72
2023/07/05 06:41:18;;;;;;;4.38;3.30;;;20.70;57.30;;;;;;5053928;28;20183;-71
2023/07/05 06:43:44;;;;;;;4.25;2.90;;;20.70;57.30;;;;;;5055105;28;20201;-71
2023/07/05 06:46:09;;;;;;;3.58;3.08;;;20.70;57.40;;;;;;5054711;28;20258;-70
2023/07/05 06:48:35;;;;;;;4.43;2.50;;;20.70;57.60;;;;;;5054181;28;20178;-70
2023/07/05 06:51:00;;;;;;;3.60;3.10;;;20.60;57.70;;;;;;5054633;28;20175;-72
2023/07/05 06:53:26;;;;;;;3.22;2.85;;;20.60;57.90;;;;;;5054159;28;20175;-70
2023/07/05 06:55:51;;;;;;;3.88;2.83;;;20.70;58.00;;;;;;5053851;28;20179;-72
2023/07/05 06:58:19;;;;;;;2.88;2.58;;;20.70;57.80;;;;;;5054580;28;20266;-72
2023/07/05 07:00:46;;;;;;;3.25;2.67;;;20.70;57.50;;;;;;5053978;28;20226;-71
2023/07/05 07:03:11;;;;;;;4.20;2.65;;;20.70;57.40;;;;;;5054209;28;20183;-71
2023/07/05 07:05:37;;;;;;;3.15;2.65;;;20.70;57.60;;;;;;5054431;28;20262;-72
2023/07/05 07:08:02;;;;;;;2.97;2.50;;;20.70;57.70;;;;;;5053447;28;20179;-72
2023/07/05 07:10:28;;;;;;;3.08;2.35;;;20.70;57.60;;;;;;5054574;28;20233;-72
2023/07/05 07:12:54;;;;;;;3.25;2.60;;;20.60;58.00;;;;;;5054640;28;20171;-73
2023/07/05 07:15:19;;;;;;;3.97;2.63;;;20.70;58.00;;;;;;5053171;28;20171;-72
2023/07/05 07:17:45;;;;;;;3.05;2.72;;;20.70;58.00;;;;;;5054476;28;20186;-72
2023/07/05 07:20:11;;;;;;;3.05;2.75;;;20.70;57.80;;;;;;5054008;28;20253;-72
2023/07/05 07:22:37;;;;;;;5.32;2.70;;;20.70;58.00;;;;;;5053371;28;20198;-72
2023/07/05 07:25:02;;;;;;;2.50;2.30;;;20.60;57.80;;;;;;5053789;28;20183;-72
2023/07/05 07:27:28;;;;;;;2.47;2.28;;;20.60;57.80;;;;;;5054294;28;20182;-71
2023/07/05 07:29:53;;;;;;;2.88;2.58;;;20.60;57.70;;;;;;5053492;28;20171;-71
2023/07/05 07:32:19;;;;;;;3.30;2.25;;;20.60;57.60;;;;;;5053829;28;20169;-71
2023/07/05 07:34:45;;;;;;;3.40;2.80;;;20.70;57.60;;;;;;5054187;28;20179;-72
2023/07/05 07:37:10;;;;;;;2.63;2.42;;;20.70;57.60;;;;;;5052931;28;20253;-71
2023/07/05 07:39:36;;;;;;;2.90;2.10;;;20.70;57.40;;;;;;5053757;28;20233;-71
2023/07/05 07:42:02;;;;;;;2.10;1.90;;;20.70;57.40;;;;;;5053580;28;20648;-73
2023/07/05 07:44:27;;;;;;;2.85;2.17;;;20.70;57.50;;;;;;5053513;28;20179;-71
2023/07/05 07:46:53;;;;;;;3.10;2.60;;;20.70;57.60;;;;;;5053767;28;20168;-72
2023/07/05 07:49:18;;;;;;;2.45;1.90;;;20.70;58.20;;;;;;5053434;28;20175;-69
2023/07/05 07:51:44;;;;;;;2.30;2.10;;;20.70;57.50;;;;;;5052823;28;20508;-70
2023/07/05 07:54:13;;;;;;;4.00;2.42;;;20.70;57.30;;;;;;5053534;28;20266;-71
2023/07/05 07:56:40;;;;;;;2.17;1.90;;;20.70;57.30;;;;;;5052555;28;20211;-71
2023/07/05 07:59:06;;;;;;;3.38;2.15;;;20.80;57.30;;;;;;5052688;28;20238;-72
2023/07/05 08:01:33;;;;;;;2.80;2.33;;;20.80;57.30;;;;;;5053653;28;20210;-70
2023/07/05 08:04:01;;;;;;;2.88;1.92;;;20.80;57.30;;;;;;5052381;28;20270;-71
2023/07/05 08:06:28;;;;;;;2.30;2.10;;;20.70;57.20;;;;;;5052650;28;20641;-71
2023/07/05 08:08:54;;;;;;;2.80;1.48;;;20.70;57.50;;;;;;5053595;28;20241;-72
2023/07/05 08:11:19;;;;;;;2.58;1.85;;;20.70;57.30;;;;;;5052457;28;20684;-72
2023/07/05 08:13:48;;;;;;;1.90;1.80;;;20.60;57.40;;;;;;5053385;28;20542;-72
2023/07/05 08:16:14;;;;;;;1.98;1.77;;;20.60;57.60;;;;;;5052982;28;20233;-72
2023/07/05 08:18:40;;;;;;;2.88;2.03;;;20.60;57.60;;;;;;5052375;28;20175;-73
2023/07/05 08:21:05;;;;;;;2.55;1.80;;;20.70;57.80;;;;;;5052667;28;20179;-72
2023/07/05 08:23:31;;;;;;;1.70;1.60;;;20.70;57.50;;;;;;5053280;28;20559;-72
2023/07/05 08:25:56;;;;;;;2.75;1.70;;;20.70;57.50;;;;;;5052085;28;20179;-72
2023/07/05 08:28:23;;;;;;;1.98;1.77;;;20.70;57.70;;;;;;5053251;28;20171;-72
2023/07/05 08:30:53;;;;;;;2.05;1.58;;;20.70;57.60;;;;;;5053099;28;20258;-73
2023/07/05 08:33:20;;;;;;;4.28;2.17;;;20.70;57.50;;;;;;5051996;28;20536;-70
2023/07/05 08:35:47;;;;;;;2.22;1.63;;;20.70;57.60;;;;;;5052765;28;20194;-72
2023/07/05 08:38:12;;;;;;;1.75;1.65;;;20.70;57.60;;;;;;5052777;28;20187;-72
2023/07/05 08:40:38;;;;;;;1.98;1.55;;;20.70;57.50;;;;;;5051753;28;20230;-72
2023/07/05 08:43:11;;;;;;;1.80;1.70;;;20.70;57.60;;;;;;5034900;28;20202;-71
2023/07/05 08:45:44;;;;;;;2.85;1.70;;;20.80;57.70;;;;;;5035384;28;20642;-71
2023/07/05 08:48:10;;;;;;;3.45;2.05;;;20.80;57.50;;;;;;5050481;28;20187;-70
2023/07/05 08:50:38;;;;;;;4.50;2.28;;;20.80;57.40;;;;;;5035032;28;20187;-71
2023/07/05 08:53:10;;;;;;;2.85;1.77;;;20.80;57.30;;;;;;5051346;28;20186;-71
2023/07/05 08:55:50;;;;;;;2.55;1.75;;;20.90;57.20;;;;;;5035307;28;20171;-72
2023/07/05 08:58:22;;;;;;;3.08;1.98;;;20.90;57.20;;;;;;5052388;28;20210;-73
2023/07/05 09:00:58;;;;;;;2.72;2.08;;;20.90;57.10;;;;;;5051891;28;20646;-73
2023/07/05 09:03:23;;;;;;;1.80;1.60;;;21.00;57.10;;;;;;5052741;28;20174;-72
2023/07/05 09:05:59;;;;;;;2.42;1.50;;;21.00;57.20;;;;;;5051619;28;20528;-72
2023/07/05 09:08:40;;;;;;;2.90;2.03;;;20.90;57.30;;;;;;5051787;28;20584;-71
2023/07/05 09:11:10;;;;;;;2.38;1.90;;;20.90;57.30;;;;;;5052065;28;20625;-73
2023/07/05 09:13:40;;;;;;;3.40;2.10;;;20.90;57.40;;;;;;5034950;28;20175;-72
2023/07/05 09:16:18;;;;;;;2.05;1.70;;;20.80;57.50;;;;;;5052517;28;20186;-71
2023/07/05 09:18:52;;;;;;;1.65;1.55;;;20.80;57.60;;;;;;5056413;28;20292;-72
2023/07/05 09:21:29;;;;;;;3.30;1.85;;;20.70;57.60;;;;;;5055413;28;20624;-72
2023/07/05 09:24:03;;;;;;;2.33;1.35;;;20.70;58.10;;;;;;5056628;28;20186;-72
2023/07/05 09:26:33;;;;;;;2.17;1.90;;;20.80;58.20;;;;;;5039851;28;20248;-71
2023/07/05 09:29:18;;;;;;;2.75;1.65;;;20.80;58.10;;;;;;5054272;28;20177;-73
2023/07/05 09:31:44;;;;;;;1.90;1.70;;;20.80;58.20;;;;;;5055210;28;20588;-72
2023/07/05 09:34:31;;;;;;;2.35;1.70;;;20.80;58.60;;;;;;5054964;28;20209;-69
2023/07/05 09:36:56;;;;;;;2.13;1.73;;;20.70;58.80;;;;;;5039581;28;20229;-72
2023/07/05 09:39:41;;;;;;;3.65;1.80;;;20.70;58.70;;;;;;5055802;28;20638;-71
2023/07/05 09:42:11;;;;;;;2.22;1.63;;;20.60;58.80;;;;;;5039334;28;20171;-70
2023/07/05 09:44:36;;;;;;;3.60;1.65;;;20.60;58.90;;;;;;5038244;28;20652;-70
2023/07/05 09:47:02;;;;;;;2.80;1.80;;;20.60;59.00;;;;;;5055565;28;20174;-71
2023/07/05 09:49:28;;;;;;;2.00;1.75;;;20.60;59.10;;;;;;5055216;28;20171;-69
2023/07/05 09:51:53;;;;;;;3.00;1.80;;;20.50;59.10;;;;;;5056177;28;20266;-71
2023/07/05 09:54:25;;;;;;;3.38;1.80;;;20.50;59.20;;;;;;5055737;28;20274;-69
2023/07/05 09:57:04;;;;;;;1.67;1.38;;;20.50;59.30;;;;;;5053839;28;20179;-71
2023/07/05 09:59:30;;;;;;;1.98;1.73;;;20.50;59.20;;;;;;5055563;28;20575;-72
2023/07/05 10:02:08;;;;;;;2.25;1.60;;;20.50;59.20;;;;;;5055704;28;20258;-71
2023/07/05 10:04:41;;;;;;;1.75;1.55;;;20.40;59.80;;;;;;5038645;28;20179;-69
2023/07/05 10:07:22;;;;;;;3.05;1.50;;;20.50;59.30;;;;;;5038682;28;20182;-70
2023/07/05 10:09:59;;;;;;;2.95;1.90;;;20.50;59.40;;;;;;5054712;28;20179;-71
2023/07/05 10:12:33;;;;;;;1.92;1.70;;;20.50;59.20;;;;;;5055274;28;20244;-71
2023/07/05 10:14:59;;;;;;;2.65;1.35;;;20.50;59.20;;;;;;5055379;28;20196;-73
2023/07/05 10:17:40;;;;;;;2.15;1.40;;;20.50;60.00;;;;;;5055436;28;20705;-70
2023/07/05 10:20:16;;;;;;;1.52;1.38;;;20.50;59.40;;;;;;5054162;28;20289;-70
2023/07/05 10:22:41;;;;;;;3.17;1.60;;;20.60;59.30;;;;;;5054086;28;20183;-72
2023/07/05 10:25:18;;;;;;;3.97;1.83;;;20.50;59.20;;;;;;5054210;28;20171;-70
2023/07/05 10:27:45;;;;;;;2.38;1.80;;;20.50;59.30;;;;;;5037284;28;20236;-71
2023/07/05 10:30:15;;;;;;;2.60;1.63;;;20.50;59.20;;;;;;5037058;28;20182;-69
2023/07/05 10:32:49;;;;;;;1.83;1.27;;;20.50;59.20;;;;;;5054483;28;20175;-72
2023/07/05 10:35:27;;;;;;;2.67;1.52;;;20.50;59.30;;;;;;5054894;28;20368;-71
2023/07/05 10:37:53;;;;;;;4.78;1.70;;;20.50;59.60;;;;;;5055062;28;20190;-71
2023/07/05 10:40:20;;;;;;;2.33;1.63;;;20.40;59.50;;;;;;5053798;28;20239;-70
2023/07/05 10:42:54;;;;;;;2.75;1.30;;;20.40;59.50;;;;;;5053674;28;20183;-71
2023/07/05 10:45:20;;;;;;;1.45;1.25;;;20.40;59.60;;;;;;5037843;28;20179;-69
2023/07/05 10:47:46;;;;;;;2.25;2.00;;;20.40;59.80;;;;;;5036308;28;20184;-70
2023/07/05 10:50:13;;;;;;;3.22;1.65;;;20.40;59.60;;;;;;5054611;28;20175;-70
2023/07/05 10:52:45;;;;;;;2.90;1.73;;;20.40;59.60;;;;;;5037322;28;20175;-69
2023/07/05 10:55:23;;;;;;;2.65;1.50;;;20.40;59.60;;;;;;5053239;28;20179;-70
2023/07/05 10:58:15;;;;;;;2.88;1.48;;;20.40;59.50;;;;;;5053660;28;20241;-71
2023/07/05 11:00:59;;;;;;;2.55;1.58;;;20.40;59.50;;;;;;5054045;28;20211;-72
2023/07/05 11:03:42;;;;;;;2.50;1.80;;;20.40;59.60;;;;;;5037349;28;20175;-70
2023/07/05 11:06:08;;;;;;;3.15;1.70;;;20.40;59.30;;;;;;5037059;28;20186;-69
2023/07/05 11:08:39;;;;;;;3.45;1.65;;;20.40;59.30;;;;;;5052811;28;20182;-70
2023/07/05 11:11:10;;;;;;;2.05;1.45;;;20.40;59.50;;;;;;5052924;28;20198;-72
2023/07/05 11:13:36;;;;;;;1.70;1.60;;;20.40;59.50;;;;;;5036890;28;20171;-72
2023/07/05 11:16:03;;;;;;;3.17;1.92;;;20.50;59.20;;;;;;5053235;28;20182;-71
2023/07/05 11:18:28;;;;;;;2.28;1.42;;;20.50;59.20;;;;;;5036810;28;20232;-70
2023/07/05 11:20:56;;;;;;;2.33;1.48;;;20.40;59.20;;;;;;5052609;28;20183;-72
2023/07/05 11:23:43;;;;;;;3.08;1.80;;;20.50;59.20;;;;;;5054367;28;20180;-70
2023/07/05 11:26:10;;;;;;;2.00;1.67;;;20.50;59.30;;;;;;5053897;28;20629;-70
2023/07/05 11:28:42;;;;;;;4.03;2.00;;;20.50;59.10;;;;;;5053341;28;20198;-69
2023/07/05 11:31:29;;;;;;;3.63;2.17;;;20.40;59.20;;;;;;5053964;28;20175;-70
2023/07/05 11:34:20;;;;;;;2.60;2.08;;;20.50;59.20;;;;;;5054035;28;20175;-71
2023/07/05 11:36:52;;;;;;;2.28;1.42;;;20.50;59.30;;;;;;5053171;28;20240;-72
2023/07/05 11:39:37;;;;;;;3.70;2.10;;;20.50;59.20;;;;;;5053245;28;20230;-71
2023/07/05 11:42:15;;;;;;;2.35;1.90;;;20.50;59.20;;;;;;5052946;28;20186;-71
2023/07/05 11:45:10;;;;;;;2.38;1.90;;;20.50;59.20;;;;;;5053392;28;20174;-69
2023/07/05 11:47:35;;;;;;;4.72;2.00;;;20.60;59.00;;;;;;5053113;28;20266;-68
2023/07/05 11:50:07;;;;;;;3.05;1.70;;;20.70;58.70;;;;;;5052320;28;20266;-69
2023/07/05 11:52:59;;;;;;;2.97;1.70;;;20.80;58.70;;;;;;5053453;28;20222;-69
2023/07/05 11:55:33;;;;;;;3.33;1.48;;;20.70;58.80;;;;;;5048351;28;20186;-69
2023/07/05 11:58:35;;;;;;;2.95;1.65;;;20.70;59.70;;;;;;5026837;28;20586;-71
2023/07/05 12:01:02;;;;;;;2.92;1.90;;;20.70;59.00;;;;;;5031098;28;20674;-71
2023/07/05 12:03:42;;;;;;;2.42;1.60;;;20.70;59.10;;;;;;5048374;28;20179;-69
2023/07/05 12:06:14;;;;;;;2.60;1.70;;;20.70;59.10;;;;;;5034838;28;20225;-69
2023/07/05 12:08:52;;;;;;;3.90;1.90;;;20.70;59.00;;;;;;5057314;28;20223;-69
2023/07/05 12:11:35;;;;;;;3.70;1.67;;;20.70;59.30;;;;;;5055210;28;20657;-69
2023/07/05 12:14:02;;;;;;;3.40;2.05;;;20.70;59.30;;;;;;5072655;28;20181;-70
2023/07/05 12:16:28;;;;;;;4.15;2.05;;;20.70;59.20;;;;;;5073077;28;20250;-70
2023/07/05 12:18:54;;;;;;;2.78;1.77;;;20.70;60.00;;;;;;5054838;28;20209;-70
2023/07/05 12:21:19;;;;;;;4.90;1.92;;;20.60;59.40;;;;;;5055253;28;20167;-69
2023/07/05 12:23:45;;;;;;;3.55;1.40;;;20.60;59.70;;;;;;5073128;28;20627;-69
2023/07/05 12:26:27;;;;;;;3.70;1.75;;;20.60;59.60;;;;;;5045177;28;20171;-68
2023/07/05 12:28:52;;;;;;;2.47;1.65;;;20.60;59.60;;;;;;5052957;28;20175;-70
2023/07/05 12:31:19;;;;;;;2.75;1.50;;;20.60;59.80;;;;;;5052192;28;20181;-67
2023/07/05 12:33:51;;;;;;;2.03;1.77;;;20.70;59.80;;;;;;5052965;28;20183;-70
2023/07/05 12:36:18;;;;;;;1.85;1.55;;;20.80;59.60;;;;;;5052816;28;20202;-69
2023/07/05 12:38:45;;;;;;;3.05;1.80;;;20.80;59.40;;;;;;5050938;28;20179;-71
2023/07/05 12:41:17;;;;;;;2.50;1.60;;;20.80;59.40;;;;;;5052498;28;20543;-69
2023/07/05 12:43:44;;;;;;;4.47;1.70;;;20.70;59.30;;;;;;5052763;28;20175;-68
2023/07/05 12:46:18;;;;;;;1.92;1.27;;;20.70;59.40;;;;;;5050424;28;20183;-68
2023/07/05 12:48:43;;;;;;;2.58;1.60;;;20.80;59.60;;;;;;5051506;28;20189;-69
2023/07/05 12:51:09;;;;;;;2.00;1.63;;;20.80;60.00;;;;;;5051848;28;20197;-68
2023/07/05 12:53:34;;;;;;;2.33;1.63;;;20.90;59.20;;;;;;5051920;28;20179;-68
2023/07/05 12:56:03;;;;;;;2.58;1.55;;;20.80;59.20;;;;;;5052535;28;20265;-69